Station Historical Data
Daily Summary for February 13, 2017 Units:  Both    English   Metric
« Previous Day
Next Day »
Daily Weekly Monthly Yearly Custom
  High: Low: Average:
Temperature: 30.8 °F /  -0.7 °C 23.8 °F /  -4.6 °C 28.8 °F /  -1.8 °C
Dew Point: 23.3 °F /  -4.8 °C 19.2 °F /  -7.1 °C 21.4 °F /  -5.9 °C
Humidity: 83% 67% 74%
Wind Speed: 17.0mph /  27.4km/h - 6.4mph /  10.3km/h
Wind Gust: 25.0mph /  40.2km/h - -
Wind- - WNW
Pressure: 30.16 in /  1021.2 hPa 29.88 in /  1011.7 hPa -
Precipitation: 0.00 in /  0 mm    
Historical Graphs
 
 
Tabular Data for February 13, 2017
Time Temperature Dew Point Pressure Wind Wind Speed Wind Gust Humidity Rainfall Rate (Hourly)
00:04 30.1 °F /  -1.1 °C 23.1 °F /  -4.9 °C 29.88in /  1011.7hPa WNW 14.0mph /  22.5km/h 22.0mph /  35.4km/h 75% 0.00in /  0mm
00:09 30.0 °F /  -1.1 °C 22.7 °F /  -5.2 °C 29.88in /  1011.7hPa West 17.0mph /  27.4km/h 21.0mph /  33.8km/h 74% 0.00in /  0mm
00:14 30.0 °F /  -1.1 °C 23.0 °F /  -5 °C 29.88in /  1011.7hPa WNW 7.0mph /  11.3km/h 22.0mph /  35.4km/h 75% 0.00in /  0mm
00:19 29.9 °F /  -1.2 °C 22.6 °F /  -5.2 °C 29.88in /  1011.7hPa WNW 11.0mph /  17.7km/h 22.0mph /  35.4km/h 74% 0.00in /  0mm
00:24 29.8 °F /  -1.2 °C 22.5 °F /  -5.3 °C 29.88in /  1011.7hPa West 11.0mph /  17.7km/h 22.0mph /  35.4km/h 74% 0.00in /  0mm
00:29 29.8 °F /  -1.2 °C 22.5 °F /  -5.3 °C 29.89in /  1012.1hPa West 10.0mph /  16.1km/h 20.0mph /  32.2km/h 74% 0.00in /  0mm
00:34 29.7 °F /  -1.3 °C 22.7 °F /  -5.2 °C 29.89in /  1012.1hPa WNW 7.0mph /  11.3km/h 19.0mph /  30.6km/h 75% 0.00in /  0mm
00:39 29.6 °F /  -1.3 °C 22.6 °F /  -5.2 °C 29.89in /  1012.1hPa WSW 14.0mph /  22.5km/h 19.0mph /  30.6km/h 75% 0.00in /  0mm
00:44 29.6 °F /  -1.3 °C 22.3 °F /  -5.4 °C 29.89in /  1012.1hPa West 9.0mph /  14.5km/h 19.0mph /  30.6km/h 74% 0.00in /  0mm
00:49 29.5 °F /  -1.4 °C 22.6 °F /  -5.2 °C 29.89in /  1012.1hPa WNW 11.0mph /  17.7km/h 20.0mph /  32.2km/h 75% 0.00in /  0mm
00:54 29.5 °F /  -1.4 °C 22.2 °F /  -5.4 °C 29.89in /  1012.1hPa West 10.0mph /  16.1km/h 20.0mph /  32.2km/h 74% 0.00in /  0mm
00:59 29.4 °F /  -1.4 °C 22.1 °F /  -5.5 °C 29.90in /  1012.4hPa West 11.0mph /  17.7km/h 25.0mph /  40.2km/h 74% 0.00in /  0mm
01:04 29.4 °F /  -1.4 °C 22.1 °F /  -5.5 °C 29.90in /  1012.4hPa West 11.0mph /  17.7km/h 25.0mph /  40.2km/h 74% 0.00in /  0mm
01:09 29.4 °F /  -1.4 °C 22.1 °F /  -5.5 °C 29.90in /  1012.4hPa WNW 8.0mph /  12.9km/h 16.0mph /  25.7km/h 74% 0.00in /  0mm
01:14 29.3 °F /  -1.5 °C 22.0 °F /  -5.6 °C 29.90in /  1012.4hPa WNW 11.0mph /  17.7km/h 18.0mph /  29km/h 74% 0.00in /  0mm
01:19 29.3 °F /  -1.5 °C 22.4 °F /  -5.3 °C 29.90in /  1012.4hPa WNW 4.0mph /  6.4km/h 16.0mph /  25.7km/h 75% 0.00in /  0mm
01:24 29.3 °F /  -1.5 °C 22.0 °F /  -5.6 °C 29.90in /  1012.4hPa West 9.0mph /  14.5km/h 18.0mph /  29km/h 74% 0.00in /  0mm
01:29 29.3 °F /  -1.5 °C 22.0 °F /  -5.6 °C 29.91in /  1012.8hPa West 10.0mph /  16.1km/h 19.0mph /  30.6km/h 74% 0.00in /  0mm
01:34 29.2 °F /  -1.6 °C 21.9 °F /  -5.6 °C 29.91in /  1012.8hPa West 11.0mph /  17.7km/h 21.0mph /  33.8km/h 74% 0.00in /  0mm
01:39 29.2 °F /  -1.6 °C 22.3 °F /  -5.4 °C 29.91in /  1012.8hPa West 13.0mph /  20.9km/h 19.0mph /  30.6km/h 75% 0.00in /  0mm
01:44 29.1 °F /  -1.6 °C 22.2 °F /  -5.4 °C 29.91in /  1012.8hPa WNW 8.0mph /  12.9km/h 18.0mph /  29km/h 75% 0.00in /  0mm
01:49 29.1 °F /  -1.6 °C 22.2 °F /  -5.4 °C 29.91in /  1012.8hPa West 8.0mph /  12.9km/h 19.0mph /  30.6km/h 75% 0.00in /  0mm
01:54 29.1 °F /  -1.6 °C 22.2 °F /  -5.4 °C 29.92in /  1013.1hPa West 10.0mph /  16.1km/h 19.0mph /  30.6km/h 75% 0.00in /  0mm
01:59 29.1 °F /  -1.6 °C 22.5 °F /  -5.3 °C 29.92in /  1013.1hPa WNW 9.0mph /  14.5km/h 18.0mph /  29km/h 76% 0.00in /  0mm
02:04 29.0 °F /  -1.7 °C 22.4 °F /  -5.3 °C 29.92in /  1013.1hPa WNW 10.0mph /  16.1km/h 24.0mph /  38.6km/h 76% 0.00in /  0mm
02:09 29.1 °F /  -1.6 °C 22.5 °F /  -5.3 °C 29.92in /  1013.1hPa WNW 5.0mph /  8km/h 16.0mph /  25.7km/h 76% 0.00in /  0mm
02:14 29.0 °F /  -1.7 °C 22.4 °F /  -5.3 °C 29.92in /  1013.1hPa West 9.0mph /  14.5km/h 19.0mph /  30.6km/h 76% 0.00in /  0mm
02:19 29.0 °F /  -1.7 °C 22.4 °F /  -5.3 °C 29.93in /  1013.4hPa West 6.0mph /  9.7km/h 16.0mph /  25.7km/h 76% 0.00in /  0mm
02:24 29.0 °F /  -1.7 °C 22.4 °F /  -5.3 °C 29.93in /  1013.4hPa WNW 13.0mph /  20.9km/h 19.0mph /  30.6km/h 76% 0.00in /  0mm
02:29 29.1 °F /  -1.6 °C 22.5 °F /  -5.3 °C 29.93in /  1013.4hPa West 9.0mph /  14.5km/h 19.0mph /  30.6km/h 76% 0.00in /  0mm
02:34 29.1 °F /  -1.6 °C 22.8 °F /  -5.1 °C 29.94in /  1013.8hPa West 7.0mph /  11.3km/h 18.0mph /  29km/h 77% 0.00in /  0mm
02:39 29.1 °F /  -1.6 °C 22.8 °F /  -5.1 °C 29.94in /  1013.8hPa SW 4.0mph /  6.4km/h 19.0mph /  30.6km/h 77% 0.00in /  0mm
02:44 29.1 °F /  -1.6 °C 22.8 °F /  -5.1 °C 29.95in /  1014.1hPa West 11.0mph /  17.7km/h 21.0mph /  33.8km/h 77% 0.00in /  0mm
02:49 29.2 °F /  -1.6 °C 22.9 °F /  -5.1 °C 29.95in /  1014.1hPa WNW 10.0mph /  16.1km/h 21.0mph /  33.8km/h 77% 0.00in /  0mm
02:54 29.2 °F /  -1.6 °C 22.9 °F /  -5.1 °C 29.94in /  1013.8hPa West 9.0mph /  14.5km/h 23.0mph /  37km/h 77% 0.00in /  0mm
02:59 29.1 °F /  -1.6 °C 22.8 °F /  -5.1 °C 29.95in /  1014.1hPa NW 9.0mph /  14.5km/h 16.0mph /  25.7km/h 77% 0.00in /  0mm
03:04 29.2 °F /  -1.6 °C 22.9 °F /  -5.1 °C 29.95in /  1014.1hPa West 10.0mph /  16.1km/h 18.0mph /  29km/h 77% 0.00in /  0mm
03:09 29.2 °F /  -1.6 °C 22.9 °F /  -5.1 °C 29.95in /  1014.1hPa West 10.0mph /  16.1km/h 18.0mph /  29km/h 77% 0.00in /  0mm
03:14 29.2 °F /  -1.6 °C 22.9 °F /  -5.1 °C 29.95in /  1014.1hPa West 9.0mph /  14.5km/h 18.0mph /  29km/h 77% 0.00in /  0mm
03:19 29.2 °F /  -1.6 °C 22.9 °F /  -5.1 °C 29.96in /  1014.4hPa WNW 17.0mph /  27.4km/h 20.0mph /  32.2km/h 77% 0.00in /  0mm
03:24 29.2 °F /  -1.6 °C 22.9 °F /  -5.1 °C 29.96in /  1014.4hPa West 15.0mph /  24.1km/h 18.0mph /  29km/h 77% 0.00in /  0mm
03:29 29.3 °F /  -1.5 °C 23.0 °F /  -5 °C 29.96in /  1014.4hPa West 8.0mph /  12.9km/h 16.0mph /  25.7km/h 77% 0.00in /  0mm
03:34 29.3 °F /  -1.5 °C 23.0 °F /  -5 °C 29.96in /  1014.4hPa WNW 10.0mph /  16.1km/h 19.0mph /  30.6km/h 77% 0.00in /  0mm
03:39 29.4 °F /  -1.4 °C 23.1 °F /  -4.9 °C 29.96in /  1014.4hPa NNW 14.0mph /  22.5km/h 18.0mph /  29km/h 77% 0.00in /  0mm
03:44 29.3 °F /  -1.5 °C 23.0 °F /  -5 °C 29.97in /  1014.8hPa West 9.0mph /  14.5km/h 16.0mph /  25.7km/h 77% 0.00in /  0mm
03:49 29.4 °F /  -1.4 °C 23.1 °F /  -4.9 °C 29.97in /  1014.8hPa WNW 6.0mph /  9.7km/h 20.0mph /  32.2km/h 77% 0.00in /  0mm
03:54 29.3 °F /  -1.5 °C 23.0 °F /  -5 °C 29.97in /  1014.8hPa West 11.0mph /  17.7km/h 18.0mph /  29km/h 77% 0.00in /  0mm
03:59 29.3 °F /  -1.5 °C 23.0 °F /  -5 °C 29.98in /  1015.1hPa WNW 7.0mph /  11.3km/h 17.0mph /  27.4km/h 77% 0.00in /  0mm
04:04 29.4 °F /  -1.4 °C 23.1 °F /  -4.9 °C 29.98in /  1015.1hPa West 8.0mph /  12.9km/h 17.0mph /  27.4km/h 77% 0.00in /  0mm
04:09 29.3 °F /  -1.5 °C 23.0 °F /  -5 °C 29.98in /  1015.1hPa West 8.0mph /  12.9km/h 15.0mph /  24.1km/h 77% 0.00in /  0mm
04:14 29.3 °F /  -1.5 °C 23.0 °F /  -5 °C 29.98in /  1015.1hPa West 9.0mph /  14.5km/h 19.0mph /  30.6km/h 77% 0.00in /  0mm
04:19 29.3 °F /  -1.5 °C 23.0 °F /  -5 °C 29.98in /  1015.1hPa West 9.0mph /  14.5km/h 19.0mph /  30.6km/h 77% 0.00in /  0mm
04:24 29.3 °F /  -1.5 °C 23.3 °F /  -4.8 °C 29.99in /  1015.5hPa WNW 5.0mph /  8km/h 20.0mph /  32.2km/h 78% 0.00in /  0mm
04:29 29.3 °F /  -1.5 °C 23.0 °F /  -5 °C 29.99in /  1015.5hPa West 6.0mph /  9.7km/h 21.0mph /  33.8km/h 77% 0.00in /  0mm
04:35 29.3 °F /  -1.5 °C 23.3 °F /  -4.8 °C 29.99in /  1015.5hPa West 9.0mph /  14.5km/h 21.0mph /  33.8km/h 78% 0.00in /  0mm
04:44 29.2 °F /  -1.6 °C 23.2 °F /  -4.9 °C 30.00in /  1015.8hPa West 6.0mph /  9.7km/h 17.0mph /  27.4km/h 78% 0.00in /  0mm
04:49 29.2 °F /  -1.6 °C 23.2 °F /  -4.9 °C 30.00in /  1015.8hPa WNW 10.0mph /  16.1km/h 16.0mph /  25.7km/h 78% 0.00in /  0mm
04:54 29.2 °F /  -1.6 °C 23.2 °F /  -4.9 °C 30.00in /  1015.8hPa WNW 4.0mph /  6.4km/h 13.0mph /  20.9km/h 78% 0.00in /  0mm
04:59 29.2 °F /  -1.6 °C 23.2 °F /  -4.9 °C 30.01in /  1016.1hPa West 7.0mph /  11.3km/h 13.0mph /  20.9km/h 78% 0.00in /  0mm
05:04 29.2 °F /  -1.6 °C 23.2 °F /  -4.9 °C 30.01in /  1016.1hPa West 4.0mph /  6.4km/h 13.0mph /  20.9km/h 78% 0.00in /  0mm
05:09 29.2 °F /  -1.6 °C 23.2 °F /  -4.9 °C 30.01in /  1016.1hPa West 7.0mph /  11.3km/h 13.0mph /  20.9km/h 78% 0.00in /  0mm
05:14 29.2 °F /  -1.6 °C 23.2 °F /  -4.9 °C 30.02in /  1016.5hPa WNW 8.0mph /  12.9km/h 16.0mph /  25.7km/h 78% 0.00in /  0mm
05:19 29.2 °F /  -1.6 °C 23.2 °F /  -4.9 °C 30.02in /  1016.5hPa West 8.0mph /  12.9km/h 16.0mph /  25.7km/h 78% 0.00in /  0mm
05:24 29.2 °F /  -1.6 °C 22.9 °F /  -5.1 °C 30.02in /  1016.5hPa WSW 11.0mph /  17.7km/h 15.0mph /  24.1km/h 77% 0.00in /  0mm
05:29 29.2 °F /  -1.6 °C 22.9 °F /  -5.1 °C 30.02in /  1016.5hPa West 6.0mph /  9.7km/h 15.0mph /  24.1km/h 77% 0.00in /  0mm
05:34 29.2 °F /  -1.6 °C 22.9 °F /  -5.1 °C 30.03in /  1016.8hPa WNW 11.0mph /  17.7km/h 13.0mph /  20.9km/h 77% 0.00in /  0mm
05:39 29.2 °F /  -1.6 °C 22.6 °F /  -5.2 °C 30.03in /  1016.8hPa WSW 7.0mph /  11.3km/h 15.0mph /  24.1km/h 76% 0.00in /  0mm
05:44 29.2 °F /  -1.6 °C 22.3 °F /  -5.4 °C 30.03in /  1016.8hPa WNW 8.0mph /  12.9km/h 15.0mph /  24.1km/h 75% 0.00in /  0mm
05:49 29.1 °F /  -1.6 °C 21.8 °F /  -5.7 °C 30.03in /  1016.8hPa NW 8.0mph /  12.9km/h 12.0mph /  19.3km/h 74% 0.00in /  0mm
05:54 29.2 °F /  -1.6 °C 21.6 °F /  -5.8 °C 30.03in /  1016.8hPa WNW 8.0mph /  12.9km/h 17.0mph /  27.4km/h 73% 0.00in /  0mm
05:59 29.2 °F /  -1.6 °C 21.6 °F /  -5.8 °C 30.03in /  1016.8hPa WNW 8.0mph /  12.9km/h 17.0mph /  27.4km/h 73% 0.00in /  0mm
06:04 29.2 °F /  -1.6 °C 21.9 °F /  -5.6 °C 30.03in /  1016.8hPa WNW 12.0mph /  19.3km/h 13.0mph /  20.9km/h 74% 0.00in /  0mm
06:09 29.2 °F /  -1.6 °C 22.3 °F /  -5.4 °C 30.04in /  1017.2hPa NW 10.0mph /  16.1km/h 14.0mph /  22.5km/h 75% 0.00in /  0mm
06:14 29.1 °F /  -1.6 °C 22.2 °F /  -5.4 °C 30.04in /  1017.2hPa West 10.0mph /  16.1km/h 15.0mph /  24.1km/h 75% 0.00in /  0mm
06:19 29.1 °F /  -1.6 °C 22.2 °F /  -5.4 °C 30.04in /  1017.2hPa West 6.0mph /  9.7km/h 15.0mph /  24.1km/h 75% 0.00in /  0mm
06:24 29.0 °F /  -1.7 °C 22.1 °F /  -5.5 °C 30.04in /  1017.2hPa West 7.0mph /  11.3km/h 16.0mph /  25.7km/h 75% 0.00in /  0mm
06:29 28.9 °F /  -1.7 °C 22.0 °F /  -5.6 °C 30.05in /  1017.5hPa West 4.0mph /  6.4km/h 16.0mph /  25.7km/h 75% 0.00in /  0mm
06:34 28.9 °F /  -1.7 °C 22.0 °F /  -5.6 °C 30.05in /  1017.5hPa NW 7.0mph /  11.3km/h 13.0mph /  20.9km/h 75% 0.00in /  0mm
06:39 28.8 °F /  -1.8 °C 21.6 °F /  -5.8 °C 30.05in /  1017.5hPa West 8.0mph /  12.9km/h 14.0mph /  22.5km/h 74% 0.00in /  0mm
06:44 28.9 °F /  -1.7 °C 21.7 °F /  -5.7 °C 30.05in /  1017.5hPa West 10.0mph /  16.1km/h 12.0mph /  19.3km/h 74% 0.00in /  0mm
06:49 28.8 °F /  -1.8 °C 21.2 °F /  -6 °C 30.05in /  1017.5hPa West 8.0mph /  12.9km/h 17.0mph /  27.4km/h 73% 0.00in /  0mm
06:54 28.7 °F /  -1.8 °C 21.1 °F /  -6.1 °C 30.06in /  1017.8hPa WNW 9.0mph /  14.5km/h 19.0mph /  30.6km/h 73% 0.00in /  0mm
06:59 28.7 °F /  -1.8 °C 20.8 °F /  -6.2 °C 30.06in /  1017.8hPa NW 11.0mph /  17.7km/h 20.0mph /  32.2km/h 72% 0.00in /  0mm
07:04 28.6 °F /  -1.9 °C 20.7 °F /  -6.3 °C 30.06in /  1017.8hPa West 7.0mph /  11.3km/h 15.0mph /  24.1km/h 72% 0.00in /  0mm
07:09 28.5 °F /  -1.9 °C 20.6 °F /  -6.3 °C 30.07in /  1018.2hPa West 8.0mph /  12.9km/h 19.0mph /  30.6km/h 72% 0.00in /  0mm
07:14 28.5 °F /  -1.9 °C 20.6 °F /  -6.3 °C 30.07in /  1018.2hPa West 7.0mph /  11.3km/h 14.0mph /  22.5km/h 72% 0.00in /  0mm
07:19 28.4 °F /  -2 °C 20.5 °F /  -6.4 °C 30.07in /  1018.2hPa WNW 6.0mph /  9.7km/h 19.0mph /  30.6km/h 72% 0.00in /  0mm
07:24 28.4 °F /  -2 °C 20.5 °F /  -6.4 °C 30.07in /  1018.2hPa WNW 8.0mph /  12.9km/h 19.0mph /  30.6km/h 72% 0.00in /  0mm
07:29 28.3 °F /  -2.1 °C 20.4 °F /  -6.4 °C 30.07in /  1018.2hPa WNW 8.0mph /  12.9km/h 16.0mph /  25.7km/h 72% 0.00in /  0mm
07:35 28.3 °F /  -2.1 °C 20.4 °F /  -6.4 °C 30.07in /  1018.2hPa WNW 7.0mph /  11.3km/h 15.0mph /  24.1km/h 72% 0.00in /  0mm
07:44 28.2 °F /  -2.1 °C 20.7 °F /  -6.3 °C 30.08in /  1018.5hPa WNW 7.0mph /  11.3km/h 15.0mph /  24.1km/h 73% 0.00in /  0mm
07:49 28.2 °F /  -2.1 °C 20.7 °F /  -6.3 °C 30.08in /  1018.5hPa NW 7.0mph /  11.3km/h 13.0mph /  20.9km/h 73% 0.00in /  0mm
07:54 28.1 °F /  -2.2 °C 20.9 °F /  -6.2 °C 30.09in /  1018.8hPa West 8.0mph /  12.9km/h 17.0mph /  27.4km/h 74% 0.00in /  0mm
07:59 28.0 °F /  -2.2 °C 20.8 °F /  -6.2 °C 30.09in /  1018.8hPa WNW 8.0mph /  12.9km/h 15.0mph /  24.1km/h 74% 0.00in /  0mm
08:04 28.0 °F /  -2.2 °C 20.8 °F /  -6.2 °C 30.09in /  1018.8hPa West 8.0mph /  12.9km/h 15.0mph /  24.1km/h 74% 0.00in /  0mm
08:09 28.0 °F /  -2.2 °C 21.1 °F /  -6.1 °C 30.10in /  1019.2hPa WNW 9.0mph /  14.5km/h 16.0mph /  25.7km/h 75% 0.00in /  0mm
08:14 27.9 °F /  -2.3 °C 21.3 °F /  -5.9 °C 30.10in /  1019.2hPa WNW 8.0mph /  12.9km/h 16.0mph /  25.7km/h 76% 0.00in /  0mm
08:19 27.9 °F /  -2.3 °C 21.0 °F /  -6.1 °C 30.10in /  1019.2hPa WNW 4.0mph /  6.4km/h 14.0mph /  22.5km/h 75% 0.00in /  0mm
08:24 27.9 °F /  -2.3 °C 21.0 °F /  -6.1 °C 30.11in /  1019.5hPa West 6.0mph /  9.7km/h 12.0mph /  19.3km/h 75% 0.00in /  0mm
08:29 27.8 °F /  -2.3 °C 20.6 °F /  -6.3 °C 30.11in /  1019.5hPa WNW 4.0mph /  6.4km/h 14.0mph /  22.5km/h 74% 0.00in /  0mm
08:34 27.8 °F /  -2.3 °C 20.6 °F /  -6.3 °C 30.11in /  1019.5hPa WNW 7.0mph /  11.3km/h 14.0mph /  22.5km/h 74% 0.00in /  0mm
08:39 27.8 °F /  -2.3 °C 20.6 °F /  -6.3 °C 30.11in /  1019.5hPa WNW 7.0mph /  11.3km/h 15.0mph /  24.1km/h 74% 0.00in /  0mm
08:44 27.7 °F /  -2.4 °C 20.2 °F /  -6.6 °C 30.11in /  1019.5hPa WNW 2.0mph /  3.2km/h 17.0mph /  27.4km/h 73% 0.00in /  0mm
08:49 27.6 °F /  -2.4 °C 20.4 °F /  -6.4 °C 30.12in /  1019.9hPa WNW 4.0mph /  6.4km/h 12.0mph /  19.3km/h 74% 0.00in /  0mm
08:54 27.6 °F /  -2.4 °C 20.1 °F /  -6.6 °C 30.12in /  1019.9hPa NW 10.0mph /  16.1km/h 16.0mph /  25.7km/h 73% 0.00in /  0mm
08:59 27.6 °F /  -2.4 °C 20.1 °F /  -6.6 °C 30.11in /  1019.5hPa WNW 7.0mph /  11.3km/h 16.0mph /  25.7km/h 73% 0.00in /  0mm
09:04 27.6 °F /  -2.4 °C 20.1 °F /  -6.6 °C 30.11in /  1019.5hPa WNW 8.0mph /  12.9km/h 18.0mph /  29km/h 73% 0.00in /  0mm
09:09 27.5 °F /  -2.5 °C 19.7 °F /  -6.8 °C 30.12in /  1019.9hPa NW 8.0mph /  12.9km/h 18.0mph /  29km/h 72% 0.00in /  0mm
09:14 27.5 °F /  -2.5 °C 20.0 °F /  -6.7 °C 30.12in /  1019.9hPa West 3.0mph /  4.8km/h 13.0mph /  20.9km/h 73% 0.00in /  0mm
09:19 27.5 °F /  -2.5 °C 20.0 °F /  -6.7 °C 30.12in /  1019.9hPa WNW 6.0mph /  9.7km/h 14.0mph /  22.5km/h 73% 0.00in /  0mm
09:24 27.5 °F /  -2.5 °C 20.0 °F /  -6.7 °C 30.13in /  1020.2hPa NW 7.0mph /  11.3km/h 14.0mph /  22.5km/h 73% 0.00in /  0mm
09:29 27.4 °F /  -2.6 °C 19.6 °F /  -6.9 °C 30.13in /  1020.2hPa NNW 6.0mph /  9.7km/h 21.0mph /  33.8km/h 72% 0.00in /  0mm
09:34 27.4 °F /  -2.6 °C 19.6 °F /  -6.9 °C 30.13in /  1020.2hPa WNW 7.0mph /  11.3km/h 21.0mph /  33.8km/h 72% 0.00in /  0mm
09:39 27.4 °F /  -2.6 °C 19.6 °F /  -6.9 °C 30.13in /  1020.2hPa NNW 7.0mph /  11.3km/h 15.0mph /  24.1km/h 72% 0.00in /  0mm
09:44 27.5 °F /  -2.5 °C 19.7 °F /  -6.8 °C 30.13in /  1020.2hPa WNW 13.0mph /  20.9km/h 13.0mph /  20.9km/h 72% 0.00in /  0mm
09:49 27.6 °F /  -2.4 °C 19.4 °F /  -7 °C 30.13in /  1020.2hPa WNW 4.0mph /  6.4km/h 22.0mph /  35.4km/h 71% 0.00in /  0mm
09:54 27.7 °F /  -2.4 °C 19.5 °F /  -6.9 °C 30.14in /  1020.5hPa NW 8.0mph /  12.9km/h 13.0mph /  20.9km/h 71% 0.00in /  0mm
09:59 27.9 °F /  -2.3 °C 20.0 °F /  -6.7 °C 30.14in /  1020.5hPa NW 6.0mph /  9.7km/h 13.0mph /  20.9km/h 72% 0.00in /  0mm
10:04 28.0 °F /  -2.2 °C 19.8 °F /  -6.8 °C 30.14in /  1020.5hPa WNW 3.0mph /  4.8km/h 12.0mph /  19.3km/h 71% 0.00in /  0mm
10:09 28.2 °F /  -2.1 °C 20.0 °F /  -6.7 °C 30.14in /  1020.5hPa WNW 6.0mph /  9.7km/h 12.0mph /  19.3km/h 71% 0.00in /  0mm
10:14 28.4 °F /  -2 °C 20.2 °F /  -6.6 °C 30.14in /  1020.5hPa WNW 6.0mph /  9.7km/h 12.0mph /  19.3km/h 71% 0.00in /  0mm
10:19 28.5 °F /  -1.9 °C 20.3 °F /  -6.5 °C 30.14in /  1020.5hPa WNW 6.0mph /  9.7km/h 13.0mph /  20.9km/h 71% 0.00in /  0mm
10:24 28.5 °F /  -1.9 °C 20.3 °F /  -6.5 °C 30.14in /  1020.5hPa WNW 8.0mph /  12.9km/h 16.0mph /  25.7km/h 71% 0.00in /  0mm
10:29 28.3 °F /  -2.1 °C 20.1 °F /  -6.6 °C 30.14in /  1020.5hPa WNW 9.0mph /  14.5km/h 16.0mph /  25.7km/h 71% 0.00in /  0mm
10:34 28.2 °F /  -2.1 °C 20.3 °F /  -6.5 °C 30.14in /  1020.5hPa NW 6.0mph /  9.7km/h 16.0mph /  25.7km/h 72% 0.00in /  0mm
10:39 28.2 °F /  -2.1 °C 20.3 °F /  -6.5 °C 30.15in /  1020.9hPa WNW 6.0mph /  9.7km/h 14.0mph /  22.5km/h 72% 0.00in /  0mm
10:44 28.7 °F /  -1.8 °C 20.5 °F /  -6.4 °C 30.15in /  1020.9hPa WNW 8.0mph /  12.9km/h 14.0mph /  22.5km/h 71% 0.00in /  0mm
10:49 28.8 °F /  -1.8 °C 20.2 °F /  -6.6 °C 30.15in /  1020.9hPa West 9.0mph /  14.5km/h 15.0mph /  24.1km/h 70% 0.00in /  0mm
10:54 28.8 °F /  -1.8 °C 20.2 °F /  -6.6 °C 30.15in /  1020.9hPa WNW 8.0mph /  12.9km/h 17.0mph /  27.4km/h 70% 0.00in /  0mm
10:59 28.8 °F /  -1.8 °C 19.9 °F /  -6.7 °C 30.15in /  1020.9hPa WNW 9.0mph /  14.5km/h 17.0mph /  27.4km/h 69% 0.00in /  0mm
11:04 29.0 °F /  -1.7 °C 20.8 °F /  -6.2 °C 30.15in /  1020.9hPa WNW 9.0mph /  14.5km/h 19.0mph /  30.6km/h 71% 0.00in /  0mm
11:09 29.3 °F /  -1.5 °C 21.1 °F /  -6.1 °C 30.15in /  1020.9hPa NNW 8.0mph /  12.9km/h 19.0mph /  30.6km/h 71% 0.00in /  0mm
11:14 29.0 °F /  -1.7 °C 20.1 °F /  -6.6 °C 30.15in /  1020.9hPa WNW 9.0mph /  14.5km/h 16.0mph /  25.7km/h 69% 0.00in /  0mm
11:19 29.6 °F /  -1.3 °C 21.0 °F /  -6.1 °C 30.15in /  1020.9hPa WNW 9.0mph /  14.5km/h 16.0mph /  25.7km/h 70% 0.00in /  0mm
11:24 30.6 °F /  -0.8 °C 21.3 °F /  -5.9 °C 30.15in /  1020.9hPa WNW 7.0mph /  11.3km/h 15.0mph /  24.1km/h 68% 0.00in /  0mm
11:29 30.5 °F /  -0.8 °C 20.8 °F /  -6.2 °C 30.15in /  1020.9hPa WNW 6.0mph /  9.7km/h 15.0mph /  24.1km/h 67% 0.00in /  0mm
11:34 30.8 °F /  -0.7 °C 21.5 °F /  -5.8 °C 30.16in /  1021.2hPa WNW 7.0mph /  11.3km/h 15.0mph /  24.1km/h 68% 0.00in /  0mm
11:39 30.2 °F /  -1 °C 21.6 °F /  -5.8 °C 30.15in /  1020.9hPa WNW 4.0mph /  6.4km/h 12.0mph /  19.3km/h 70% 0.01in /  0.25mm
11:44 30.6 °F /  -0.8 °C 21.6 °F /  -5.8 °C 30.15in /  1020.9hPa West 6.0mph /  9.7km/h 14.0mph /  22.5km/h 69% 0.01in /  0.25mm
11:49 29.9 °F /  -1.2 °C 20.6 °F /  -6.3 °C 30.15in /  1020.9hPa NNW 6.0mph /  9.7km/h 18.0mph /  29km/h 68% 0.01in /  0.25mm
11:54 30.0 °F /  -1.1 °C 21.1 °F /  -6.1 °C 30.15in /  1020.9hPa West 9.0mph /  14.5km/h 12.0mph /  19.3km/h 69% 0.01in /  0.25mm
11:59 29.9 °F /  -1.2 °C 21.0 °F /  -6.1 °C 30.15in /  1020.9hPa NW 7.0mph /  11.3km/h 13.0mph /  20.9km/h 69% 0.01in /  0.25mm
12:04 29.7 °F /  -1.3 °C 20.4 °F /  -6.4 °C 30.15in /  1020.9hPa NW 4.0mph /  6.4km/h 12.0mph /  19.3km/h 68% 0.01in /  0.25mm
12:09 30.0 °F /  -1.1 °C 21.1 °F /  -6.1 °C 30.15in /  1020.9hPa WNW 13.0mph /  20.9km/h 13.0mph /  20.9km/h 69% 0.01in /  0.25mm
12:14 29.7 °F /  -1.3 °C 20.1 °F /  -6.6 °C 30.15in /  1020.9hPa NW 6.0mph /  9.7km/h 15.0mph /  24.1km/h 67% 0.01in /  0.25mm
12:19 29.5 °F /  -1.4 °C 20.2 °F /  -6.6 °C 30.15in /  1020.9hPa NW 11.0mph /  17.7km/h 18.0mph /  29km/h 68% 0.01in /  0.25mm
12:24 29.3 °F /  -1.5 °C 20.4 °F /  -6.4 °C 30.15in /  1020.9hPa NW 7.0mph /  11.3km/h 18.0mph /  29km/h 69% 0.01in /  0.25mm
12:29 29.1 °F /  -1.6 °C 20.2 °F /  -6.6 °C 30.15in /  1020.9hPa NW 7.0mph /  11.3km/h 15.0mph /  24.1km/h 69% 0.01in /  0.25mm
12:34 29.1 °F /  -1.6 °C 20.2 °F /  -6.6 °C 30.15in /  1020.9hPa WNW 7.0mph /  11.3km/h 15.0mph /  24.1km/h 69% 0.01in /  0.25mm
12:39 29.0 °F /  -1.7 °C 20.4 °F /  -6.4 °C 30.15in /  1020.9hPa NNW 6.0mph /  9.7km/h 15.0mph /  24.1km/h 70% 0.00in /  0mm
12:44 29.2 °F /  -1.6 °C 20.6 °F /  -6.3 °C 30.14in /  1020.5hPa WSW 6.0mph /  9.7km/h 16.0mph /  25.7km/h 70% 0.00in /  0mm
12:49 29.5 °F /  -1.4 °C 20.9 °F /  -6.2 °C 30.15in /  1020.9hPa West 9.0mph /  14.5km/h 16.0mph /  25.7km/h 70% 0.00in /  0mm
12:54 29.9 °F /  -1.2 °C 21.6 °F /  -5.8 °C 30.15in /  1020.9hPa WNW 7.0mph /  11.3km/h 16.0mph /  25.7km/h 71% 0.00in /  0mm
12:59 29.2 °F /  -1.6 °C 21.0 °F /  -6.1 °C 30.15in /  1020.9hPa WNW 8.0mph /  12.9km/h 16.0mph /  25.7km/h 71% 0.00in /  0mm
13:04 28.9 °F /  -1.7 °C 21.3 °F /  -5.9 °C 30.14in /  1020.5hPa WNW 8.0mph /  12.9km/h 15.0mph /  24.1km/h 73% 0.00in /  0mm
13:09 29.2 °F /  -1.6 °C 21.9 °F /  -5.6 °C 30.15in /  1020.9hPa WNW 7.0mph /  11.3km/h 15.0mph /  24.1km/h 74% 0.01in /  0.25mm
13:14 29.0 °F /  -1.7 °C 21.7 °F /  -5.7 °C 30.14in /  1020.5hPa WNW 7.0mph /  11.3km/h 14.0mph /  22.5km/h 74% 0.01in /  0.25mm
13:19 28.7 °F /  -1.8 °C 21.5 °F /  -5.8 °C 30.15in /  1020.9hPa NW 7.0mph /  11.3km/h 14.0mph /  22.5km/h 74% 0.01in /  0.25mm
13:24 28.8 °F /  -1.8 °C 21.9 °F /  -5.6 °C 30.15in /  1020.9hPa West 6.0mph /  9.7km/h 14.0mph /  22.5km/h 75% 0.01in /  0.25mm
13:29 28.8 °F /  -1.8 °C 21.2 °F /  -6 °C 30.14in /  1020.5hPa WNW 7.0mph /  11.3km/h 15.0mph /  24.1km/h 73% 0.01in /  0.25mm
13:34 28.9 °F /  -1.7 °C 21.3 °F /  -5.9 °C 30.14in /  1020.5hPa WNW 8.0mph /  12.9km/h 15.0mph /  24.1km/h 73% 0.01in /  0.25mm
13:39 28.6 °F /  -1.9 °C 21.0 °F /  -6.1 °C 30.14in /  1020.5hPa WNW 8.0mph /  12.9km/h 14.0mph /  22.5km/h 73% 0.01in /  0.25mm
13:44 28.7 °F /  -1.8 °C 20.8 °F /  -6.2 °C 30.14in /  1020.5hPa West 6.0mph /  9.7km/h 14.0mph /  22.5km/h 72% 0.01in /  0.25mm
13:49 28.7 °F /  -1.8 °C 21.5 °F /  -5.8 °C 30.14in /  1020.5hPa West 8.0mph /  12.9km/h 12.0mph /  19.3km/h 74% 0.01in /  0.25mm
13:54 28.7 °F /  -1.8 °C 20.8 °F /  -6.2 °C 30.14in /  1020.5hPa West 11.0mph /  17.7km/h 19.0mph /  30.6km/h 72% 0.01in /  0.25mm
13:59 28.8 °F /  -1.8 °C 21.2 °F /  -6 °C 30.14in /  1020.5hPa West 6.0mph /  9.7km/h 15.0mph /  24.1km/h 73% 0.01in /  0.25mm
14:04 29.0 °F /  -1.7 °C 20.8 °F /  -6.2 °C 30.14in /  1020.5hPa WNW 8.0mph /  12.9km/h 16.0mph /  25.7km/h 71% 0.01in /  0.25mm
14:09 28.7 °F /  -1.8 °C 20.8 °F /  -6.2 °C 30.14in /  1020.5hPa WNW 10.0mph /  16.1km/h 16.0mph /  25.7km/h 72% 0.00in /  0mm
14:14 28.6 °F /  -1.9 °C 20.7 °F /  -6.3 °C 30.14in /  1020.5hPa WNW 9.0mph /  14.5km/h 16.0mph /  25.7km/h 72% 0.00in /  0mm
14:19 28.9 °F /  -1.7 °C 20.7 °F /  -6.3 °C 30.14in /  1020.5hPa WNW 7.0mph /  11.3km/h 15.0mph /  24.1km/h 71% 0.00in /  0mm
14:24 28.9 °F /  -1.7 °C 19.7 °F /  -6.8 °C 30.14in /  1020.5hPa WNW 7.0mph /  11.3km/h 18.0mph /  29km/h 68% 0.00in /  0mm
14:29 28.8 °F /  -1.8 °C 19.6 °F /  -6.9 °C 30.14in /  1020.5hPa WNW 8.0mph /  12.9km/h 21.0mph /  33.8km/h 68% 0.00in /  0mm
14:34 28.8 °F /  -1.8 °C 19.9 °F /  -6.7 °C 30.14in /  1020.5hPa NW 7.0mph /  11.3km/h 17.0mph /  27.4km/h 69% 0.00in /  0mm
14:39 28.9 °F /  -1.7 °C 20.3 °F /  -6.5 °C 30.14in /  1020.5hPa WNW 9.0mph /  14.5km/h 18.0mph /  29km/h 70% 0.00in /  0mm
14:44 28.9 °F /  -1.7 °C 20.0 °F /  -6.7 °C 30.14in /  1020.5hPa NNW 8.0mph /  12.9km/h 16.0mph /  25.7km/h 69% 0.00in /  0mm
14:49 29.0 °F /  -1.7 °C 20.4 °F /  -6.4 °C 30.14in /  1020.5hPa WNW 8.0mph /  12.9km/h 16.0mph /  25.7km/h 70% 0.00in /  0mm
14:54 29.0 °F /  -1.7 °C 20.8 °F /  -6.2 °C 30.15in /  1020.9hPa WNW 5.0mph /  8km/h 14.0mph /  22.5km/h 71% 0.00in /  0mm
14:59 29.1 °F /  -1.6 °C 20.9 °F /  -6.2 °C 30.14in /  1020.5hPa WNW 7.0mph /  11.3km/h 13.0mph /  20.9km/h 71% 0.00in /  0mm
15:04 29.3 °F /  -1.5 °C 21.4 °F /  -5.9 °C 30.14in /  1020.5hPa NNW 6.0mph /  9.7km/h 12.0mph /  19.3km/h 72% 0.00in /  0mm
15:09 29.3 °F /  -1.5 °C 21.4 °F /  -5.9 °C 30.14in /  1020.5hPa WNW 5.0mph /  8km/h 16.0mph /  25.7km/h 72% 0.00in /  0mm
15:14 29.4 °F /  -1.4 °C 21.5 °F /  -5.8 °C 30.14in /  1020.5hPa WNW 6.0mph /  9.7km/h 16.0mph /  25.7km/h 72% 0.00in /  0mm
15:19 29.2 °F /  -1.6 °C 21.3 °F /  -5.9 °C 30.14in /  1020.5hPa WNW 6.0mph /  9.7km/h 14.0mph /  22.5km/h 72% 0.00in /  0mm
15:24 29.3 °F /  -1.5 °C 21.4 °F /  -5.9 °C 30.14in /  1020.5hPa WNW 5.0mph /  8km/h 13.0mph /  20.9km/h 72% 0.00in /  0mm
15:29 29.3 °F /  -1.5 °C 21.7 °F /  -5.7 °C 30.14in /  1020.5hPa West 6.0mph /  9.7km/h 9.0mph /  14.5km/h 73% 0.00in /  0mm
15:34 29.2 °F /  -1.6 °C 21.3 °F /  -5.9 °C 30.14in /  1020.5hPa WNW 6.0mph /  9.7km/h 12.0mph /  19.3km/h 72% 0.00in /  0mm
15:39 29.0 °F /  -1.7 °C 21.1 °F /  -6.1 °C 30.14in /  1020.5hPa West 7.0mph /  11.3km/h 13.0mph /  20.9km/h 72% 0.00in /  0mm
15:44 28.9 °F /  -1.7 °C 21.0 °F /  -6.1 °C 30.14in /  1020.5hPa West 4.0mph /  6.4km/h 10.0mph /  16.1km/h 72% 0.00in /  0mm
15:49 29.0 °F /  -1.7 °C 21.4 °F /  -5.9 °C 30.14in /  1020.5hPa West 2.0mph /  3.2km/h 9.0mph /  14.5km/h 73% 0.00in /  0mm
15:54 29.2 °F /  -1.6 °C 21.6 °F /  -5.8 °C 30.13in /  1020.2hPa West 4.0mph /  6.4km/h 9.0mph /  14.5km/h 73% 0.00in /  0mm
15:59 29.2 °F /  -1.6 °C 21.3 °F /  -5.9 °C 30.13in /  1020.2hPa West 4.0mph /  6.4km/h 9.0mph /  14.5km/h 72% 0.00in /  0mm
16:04 29.2 °F /  -1.6 °C 21.3 °F /  -5.9 °C 30.13in /  1020.2hPa West 6.0mph /  9.7km/h 11.0mph /  17.7km/h 72% 0.00in /  0mm
16:09 29.2 °F /  -1.6 °C 21.3 °F /  -5.9 °C 30.13in /  1020.2hPa WNW 10.0mph /  16.1km/h 13.0mph /  20.9km/h 72% 0.00in /  0mm
16:14 29.2 °F /  -1.6 °C 21.3 °F /  -5.9 °C 30.13in /  1020.2hPa West 8.0mph /  12.9km/h 13.0mph /  20.9km/h 72% 0.00in /  0mm
16:19 29.3 °F /  -1.5 °C 21.4 °F /  -5.9 °C 30.13in /  1020.2hPa West 7.0mph /  11.3km/h 10.0mph /  16.1km/h 72% 0.00in /  0mm
16:24 29.4 °F /  -1.4 °C 21.8 °F /  -5.7 °C 30.12in /  1019.9hPa WSW 5.0mph /  8km/h 7.0mph /  11.3km/h 73% 0.00in /  0mm
16:29 29.4 °F /  -1.4 °C 21.5 °F /  -5.8 °C 30.12in /  1019.9hPa West 4.0mph /  6.4km/h 7.0mph /  11.3km/h 72% 0.00in /  0mm
16:34 29.4 °F /  -1.4 °C 21.5 °F /  -5.8 °C 30.12in /  1019.9hPa West 8.0mph /  12.9km/h 10.0mph /  16.1km/h 72% 0.00in /  0mm
16:39 29.4 °F /  -1.4 °C 21.8 °F /  -5.7 °C 30.12in /  1019.9hPa West 4.0mph /  6.4km/h 8.0mph /  12.9km/h 73% 0.00in /  0mm
16:44 29.5 °F /  -1.4 °C 21.9 °F /  -5.6 °C 30.12in /  1019.9hPa West 5.0mph /  8km/h 8.0mph /  12.9km/h 73% 0.00in /  0mm
16:49 29.6 °F /  -1.3 °C 22.0 °F /  -5.6 °C 30.12in /  1019.9hPa NNW 3.0mph /  4.8km/h 6.0mph /  9.7km/h 73% 0.00in /  0mm
16:54 29.5 °F /  -1.4 °C 21.9 °F /  -5.6 °C 30.12in /  1019.9hPa WNW 5.0mph /  8km/h 8.0mph /  12.9km/h 73% 0.00in /  0mm
16:59 29.4 °F /  -1.4 °C 21.8 °F /  -5.7 °C 30.12in /  1019.9hPa West 4.0mph /  6.4km/h 6.0mph /  9.7km/h 73% 0.00in /  0mm
17:04 29.4 °F /  -1.4 °C 22.1 °F /  -5.5 °C 30.12in /  1019.9hPa WNW 3.0mph /  4.8km/h 6.0mph /  9.7km/h 74% 0.00in /  0mm
17:09 29.4 °F /  -1.4 °C 22.1 °F /  -5.5 °C 30.12in /  1019.9hPa NNW 2.0mph /  3.2km/h 5.0mph /  8km/h 74% 0.00in /  0mm
17:14 29.4 °F /  -1.4 °C 21.8 °F /  -5.7 °C 30.12in /  1019.9hPa NW 1.0mph /  1.6km/h 6.0mph /  9.7km/h 73% 0.00in /  0mm
17:19 29.4 °F /  -1.4 °C 21.8 °F /  -5.7 °C 30.12in /  1019.9hPa West 1.0mph /  1.6km/h 6.0mph /  9.7km/h 73% 0.00in /  0mm
17:24 29.5 °F /  -1.4 °C 21.9 °F /  -5.6 °C 30.12in /  1019.9hPa WSW 4.0mph /  6.4km/h 7.0mph /  11.3km/h 73% 0.00in /  0mm
17:29 29.4 °F /  -1.4 °C 21.8 °F /  -5.7 °C 30.12in /  1019.9hPa WSW 2.0mph /  3.2km/h 7.0mph /  11.3km/h 73% 0.00in /  0mm
17:34 29.5 °F /  -1.4 °C 21.9 °F /  -5.6 °C 30.12in /  1019.9hPa West 3.0mph /  4.8km/h 7.0mph /  11.3km/h 73% 0.00in /  0mm
17:39 29.5 °F /  -1.4 °C 21.9 °F /  -5.6 °C 30.11in /  1019.5hPa West 3.0mph /  4.8km/h 8.0mph /  12.9km/h 73% 0.00in /  0mm
17:44 29.6 °F /  -1.3 °C 22.0 °F /  -5.6 °C 30.12in /  1019.9hPa West 3.0mph /  4.8km/h 8.0mph /  12.9km/h 73% 0.00in /  0mm
17:49 29.6 °F /  -1.3 °C 22.0 °F /  -5.6 °C 30.12in /  1019.9hPa West 3.0mph /  4.8km/h 7.0mph /  11.3km/h 73% 0.00in /  0mm
17:54 29.5 °F /  -1.4 °C 21.9 °F /  -5.6 °C 30.11in /  1019.5hPa West 3.0mph /  4.8km/h 7.0mph /  11.3km/h 73% 0.00in /  0mm
17:59 29.6 °F /  -1.3 °C 22.0 °F /  -5.6 °C 30.11in /  1019.5hPa West 4.0mph /  6.4km/h 7.0mph /  11.3km/h 73% 0.00in /  0mm
18:04 29.6 °F /  -1.3 °C 22.0 °F /  -5.6 °C 30.11in /  1019.5hPa West 3.0mph /  4.8km/h 5.0mph /  8km/h 73% 0.00in /  0mm
18:09 29.7 °F /  -1.3 °C 21.8 °F /  -5.7 °C 30.11in /  1019.5hPa West 3.0mph /  4.8km/h 5.0mph /  8km/h 72% 0.00in /  0mm
18:14 29.7 °F /  -1.3 °C 21.8 °F /  -5.7 °C 30.11in /  1019.5hPa WNW 4.0mph /  6.4km/h 6.0mph /  9.7km/h 72% 0.00in /  0mm
18:19 29.7 °F /  -1.3 °C 22.1 °F /  -5.5 °C 30.11in /  1019.5hPa NNW 3.0mph /  4.8km/h 6.0mph /  9.7km/h 73% 0.00in /  0mm
18:24 29.8 °F /  -1.2 °C 22.2 °F /  -5.4 °C 30.11in /  1019.5hPa West 2.0mph /  3.2km/h 6.0mph /  9.7km/h 73% 0.00in /  0mm
18:29 29.8 °F /  -1.2 °C 22.2 °F /  -5.4 °C 30.11in /  1019.5hPa WNW 3.0mph /  4.8km/h 6.0mph /  9.7km/h 73% 0.00in /  0mm
18:34 29.8 °F /  -1.2 °C 22.2 °F /  -5.4 °C 30.11in /  1019.5hPa WSW 2.0mph /  3.2km/h 5.0mph /  8km/h 73% 0.00in /  0mm
18:39 29.8 °F /  -1.2 °C 22.2 °F /  -5.4 °C 30.11in /  1019.5hPa WSW 3.0mph /  4.8km/h 7.0mph /  11.3km/h 73% 0.00in /  0mm
18:44 29.9 °F /  -1.2 °C 22.3 °F /  -5.4 °C 30.11in /  1019.5hPa West 2.0mph /  3.2km/h 6.0mph /  9.7km/h 73% 0.00in /  0mm
18:49 30.0 °F /  -1.1 °C 22.4 °F /  -5.3 °C 30.11in /  1019.5hPa West 3.0mph /  4.8km/h 7.0mph /  11.3km/h 73% 0.00in /  0mm
18:54 30.1 °F /  -1.1 °C 22.5 °F /  -5.3 °C 30.10in /  1019.2hPa West 5.0mph /  8km/h 8.0mph /  12.9km/h 73% 0.00in /  0mm
18:59 30.2 °F /  -1 °C 22.6 °F /  -5.2 °C 30.10in /  1019.2hPa West 5.0mph /  8km/h 9.0mph /  14.5km/h 73% 0.00in /  0mm
19:04 30.1 °F /  -1.1 °C 22.5 °F /  -5.3 °C 30.10in /  1019.2hPa West 6.0mph /  9.7km/h 7.0mph /  11.3km/h 73% 0.00in /  0mm
19:09 30.2 °F /  -1 °C 22.3 °F /  -5.4 °C 30.10in /  1019.2hPa West 3.0mph /  4.8km/h 10.0mph /  16.1km/h 72% 0.00in /  0mm
19:14 30.2 °F /  -1 °C 22.3 °F /  -5.4 °C 30.10in /  1019.2hPa West 5.0mph /  8km/h 12.0mph /  19.3km/h 72% 0.00in /  0mm
19:19 30.2 °F /  -1 °C 22.3 °F /  -5.4 °C 30.10in /  1019.2hPa West 5.0mph /  8km/h 12.0mph /  19.3km/h 72% 0.00in /  0mm
19:24 30.2 °F /  -1 °C 22.3 °F /  -5.4 °C 30.11in /  1019.5hPa West 4.0mph /  6.4km/h 10.0mph /  16.1km/h 72% 0.00in /  0mm
19:29 30.1 °F /  -1.1 °C 22.2 °F /  -5.4 °C 30.10in /  1019.2hPa WNW 4.0mph /  6.4km/h 8.0mph /  12.9km/h 72% 0.00in /  0mm
19:34 30.1 °F /  -1.1 °C 22.2 °F /  -5.4 °C 30.10in /  1019.2hPa West 4.0mph /  6.4km/h 9.0mph /  14.5km/h 72% 0.00in /  0mm
19:39 30.0 °F /  -1.1 °C 22.1 °F /  -5.5 °C 30.10in /  1019.2hPa West 4.0mph /  6.4km/h 10.0mph /  16.1km/h 72% 0.00in /  0mm
19:44 30.0 °F /  -1.1 °C 21.7 °F /  -5.7 °C 30.10in /  1019.2hPa WSW 8.0mph /  12.9km/h 13.0mph /  20.9km/h 71% 0.00in /  0mm
19:49 29.9 °F /  -1.2 °C 21.6 °F /  -5.8 °C 30.10in /  1019.2hPa West 5.0mph /  8km/h 13.0mph /  20.9km/h 71% 0.00in /  0mm
19:54 29.9 °F /  -1.2 °C 21.6 °F /  -5.8 °C 30.10in /  1019.2hPa West 5.0mph /  8km/h 12.0mph /  19.3km/h 71% 0.00in /  0mm
19:59 29.9 °F /  -1.2 °C 21.6 °F /  -5.8 °C 30.10in /  1019.2hPa West 5.0mph /  8km/h 12.0mph /  19.3km/h 71% 0.00in /  0mm
20:04 29.9 °F /  -1.2 °C 21.6 °F /  -5.8 °C 30.10in /  1019.2hPa West 5.0mph /  8km/h 10.0mph /  16.1km/h 71% 0.00in /  0mm
20:09 29.8 °F /  -1.2 °C 21.9 °F /  -5.6 °C 30.10in /  1019.2hPa West 5.0mph /  8km/h 10.0mph /  16.1km/h 72% 0.00in /  0mm
20:14 29.8 °F /  -1.2 °C 21.9 °F /  -5.6 °C 30.10in /  1019.2hPa West 5.0mph /  8km/h 10.0mph /  16.1km/h 72% 0.00in /  0mm
20:19 29.7 °F /  -1.3 °C 21.8 °F /  -5.7 °C 30.10in /  1019.2hPa West 5.0mph /  8km/h 9.0mph /  14.5km/h 72% 0.00in /  0mm
20:24 29.6 °F /  -1.3 °C 21.7 °F /  -5.7 °C 30.10in /  1019.2hPa WSW 7.0mph /  11.3km/h 8.0mph /  12.9km/h 72% 0.00in /  0mm
20:29 29.6 °F /  -1.3 °C 21.7 °F /  -5.7 °C 30.10in /  1019.2hPa West 6.0mph /  9.7km/h 9.0mph /  14.5km/h 72% 0.00in /  0mm
20:34 29.5 °F /  -1.4 °C 21.6 °F /  -5.8 °C 30.10in /  1019.2hPa WSW 8.0mph /  12.9km/h 14.0mph /  22.5km/h 72% 0.00in /  0mm
20:39 29.5 °F /  -1.4 °C 21.6 °F /  -5.8 °C 30.09in /  1018.8hPa West 5.0mph /  8km/h 10.0mph /  16.1km/h 72% 0.00in /  0mm
20:44 29.4 °F /  -1.4 °C 21.5 °F /  -5.8 °C 30.09in /  1018.8hPa WNW 2.0mph /  3.2km/h 9.0mph /  14.5km/h 72% 0.00in /  0mm
20:49 29.2 °F /  -1.6 °C 21.3 °F /  -5.9 °C 30.09in /  1018.8hPa West 5.0mph /  8km/h 12.0mph /  19.3km/h 72% 0.00in /  0mm
20:54 29.0 °F /  -1.7 °C 21.1 °F /  -6.1 °C 30.10in /  1019.2hPa West 3.0mph /  4.8km/h 8.0mph /  12.9km/h 72% 0.00in /  0mm
20:59 28.9 °F /  -1.7 °C 21.0 °F /  -6.1 °C 30.10in /  1019.2hPa West 4.0mph /  6.4km/h 10.0mph /  16.1km/h 72% 0.00in /  0mm
21:04 28.9 °F /  -1.7 °C 21.0 °F /  -6.1 °C 30.10in /  1019.2hPa West 5.0mph /  8km/h 11.0mph /  17.7km/h 72% 0.00in /  0mm
21:09 28.8 °F /  -1.8 °C 20.9 °F /  -6.2 °C 30.10in /  1019.2hPa West 5.0mph /  8km/h 11.0mph /  17.7km/h 72% 0.00in /  0mm
21:14 28.7 °F /  -1.8 °C 20.8 °F /  -6.2 °C 30.09in /  1018.8hPa West 4.0mph /  6.4km/h 8.0mph /  12.9km/h 72% 0.00in /  0mm
21:19 28.4 °F /  -2 °C 20.5 °F /  -6.4 °C 30.09in /  1018.8hPa West 3.0mph /  4.8km/h 7.0mph /  11.3km/h 72% 0.00in /  0mm
21:29 28.1 °F /  -2.2 °C 20.2 °F /  -6.6 °C 30.09in /  1018.8hPa WSW 3.0mph /  4.8km/h 5.0mph /  8km/h 72% 0.00in /  0mm
21:34 27.9 °F /  -2.3 °C 20.4 °F /  -6.4 °C 30.09in /  1018.8hPa West 3.0mph /  4.8km/h 6.0mph /  9.7km/h 73% 0.00in /  0mm
21:39 27.8 °F /  -2.3 °C 20.3 °F /  -6.5 °C 30.09in /  1018.8hPa West 2.0mph /  3.2km/h 5.0mph /  8km/h 73% 0.00in /  0mm
21:44 27.7 °F /  -2.4 °C 20.2 °F /  -6.6 °C 30.09in /  1018.8hPa West 5.0mph /  8km/h 6.0mph /  9.7km/h 73% 0.00in /  0mm
21:49 27.5 °F /  -2.5 °C 20.0 °F /  -6.7 °C 30.09in /  1018.8hPa West 3.0mph /  4.8km/h 5.0mph /  8km/h 73% 0.00in /  0mm
21:54 27.4 °F /  -2.6 °C 20.2 °F /  -6.6 °C 30.08in /  1018.5hPa WSW 2.0mph /  3.2km/h 4.0mph /  6.4km/h 74% 0.00in /  0mm
21:59 27.4 °F /  -2.6 °C 20.2 °F /  -6.6 °C 30.08in /  1018.5hPa West 1.0mph /  1.6km/h 4.0mph /  6.4km/h 74% 0.00in /  0mm
22:04 27.1 °F /  -2.7 °C 19.9 °F /  -6.7 °C 30.08in /  1018.5hPa WSW 2.0mph /  3.2km/h 4.0mph /  6.4km/h 74% 0.00in /  0mm
22:09 27.2 °F /  -2.7 °C 20.0 °F /  -6.7 °C 30.08in /  1018.5hPa West 4.0mph /  6.4km/h 4.0mph /  6.4km/h 74% 0.00in /  0mm
22:14 27.1 °F /  -2.7 °C 20.2 °F /  -6.6 °C 30.08in /  1018.5hPa West 2.0mph /  3.2km/h 5.0mph /  8km/h 75% 0.00in /  0mm
22:19 26.9 °F /  -2.8 °C 20.0 °F /  -6.7 °C 30.08in /  1018.5hPa West 2.0mph /  3.2km/h 5.0mph /  8km/h 75% 0.00in /  0mm
22:24 27.0 °F /  -2.8 °C 20.1 °F /  -6.6 °C 30.07in /  1018.2hPa West 2.0mph /  3.2km/h 7.0mph /  11.3km/h 75% 0.00in /  0mm
22:29 27.0 °F /  -2.8 °C 20.1 °F /  -6.6 °C 30.07in /  1018.2hPa West 2.0mph /  3.2km/h 7.0mph /  11.3km/h 75% 0.00in /  0mm
22:34 26.9 °F /  -2.8 °C 20.0 °F /  -6.7 °C 30.07in /  1018.2hPa West 2.0mph /  3.2km/h 3.0mph /  4.8km/h 75% 0.00in /  0mm
22:39 26.9 °F /  -2.8 °C 20.3 °F /  -6.5 °C 30.07in /  1018.2hPa West 2.0mph /  3.2km/h 4.0mph /  6.4km/h 76% 0.00in /  0mm
22:44 26.7 °F /  -2.9 °C 20.1 °F /  -6.6 °C 30.07in /  1018.2hPa West 2.0mph /  3.2km/h 4.0mph /  6.4km/h 76% 0.00in /  0mm
22:49 26.7 °F /  -2.9 °C 20.1 °F /  -6.6 °C 30.07in /  1018.2hPa West 2.0mph /  3.2km/h 5.0mph /  8km/h 76% 0.00in /  0mm
22:54 26.5 °F /  -3.1 °C 20.0 °F /  -6.7 °C 30.07in /  1018.2hPa West 2.0mph /  3.2km/h 5.0mph /  8km/h 76% 0.00in /  0mm
22:59 26.4 °F /  -3.1 °C 20.2 °F /  -6.6 °C 30.06in /  1017.8hPa West 1.0mph /  1.6km/h 4.0mph /  6.4km/h 77% 0.00in /  0mm
23:04 26.4 °F /  -3.1 °C 20.2 °F /  -6.6 °C 30.06in /  1017.8hPa West 1.0mph /  1.6km/h 3.0mph /  4.8km/h 77% 0.00in /  0mm
23:09 26.4 °F /  -3.1 °C 20.2 °F /  -6.6 °C 30.06in /  1017.8hPa WSW 1.0mph /  1.6km/h 3.0mph /  4.8km/h 77% 0.00in /  0mm
23:14 26.2 °F /  -3.2 °C 20.0 °F /  -6.7 °C 30.05in /  1017.5hPa WSW 1.0mph /  1.6km/h 3.0mph /  4.8km/h 77% 0.00in /  0mm
23:19 25.9 °F /  -3.4 °C 20.0 °F /  -6.7 °C 30.05in /  1017.5hPa WSW 1.0mph /  1.6km/h 2.0mph /  3.2km/h 78% 0.00in /  0mm
23:24 25.4 °F /  -3.7 °C 19.8 °F /  -6.8 °C 30.05in /  1017.5hPa WSW 1.0mph /  1.6km/h 2.0mph /  3.2km/h 79% 0.00in /  0mm
23:29 25.1 °F /  -3.8 °C 19.5 °F /  -6.9 °C 30.05in /  1017.5hPa Calm   1.0mph /  1.6km/h 79% 0.00in /  0mm
23:34 24.9 °F /  -3.9 °C 19.6 °F /  -6.9 °C 30.05in /  1017.5hPa Calm   1.0mph /  1.6km/h 80% 0.00in /  0mm
23:39 24.7 °F /  -4.1 °C 19.7 °F /  -6.8 °C 30.04in /  1017.2hPa WSW 1.0mph /  1.6km/h 1.0mph /  1.6km/h 81% 0.00in /  0mm
23:44 24.5 °F /  -4.2 °C 19.5 °F /  -6.9 °C 30.04in /  1017.2hPa WSW 1.0mph /  1.6km/h 2.0mph /  3.2km/h 81% 0.00in /  0mm
23:49 24.2 °F /  -4.3 °C 19.2 °F /  -7.1 °C 30.03in /  1016.8hPa Calm   2.0mph /  3.2km/h 81% 0.00in /  0mm
23:54 24.0 °F /  -4.4 °C 19.3 °F /  -7.1 °C 30.03in /  1016.8hPa Calm   3.0mph /  4.8km/h 82% 0.00in /  0mm
23:59 23.8 °F /  -4.6 °C 19.4 °F /  -7 °C 30.04in /  1017.2hPa Calm   1.0mph /  1.6km/h 83% 0.00in /  0mm
Buffalo, New York, USA
Compliments of Weather Underground - 2.5 mb